Getxo, Spain
Current Conditions -  °F | °C
As of 5:30 AM on Wednesday 22 Oct 2014 (Local Time) from LEBB Reporting Station
Broken Clouds Broken Clouds  
Wind Chill: 59°   Ceiling: 4000
Heat Index: 59°   Visibility: 6mi
Dew Point: 55°   Wind: 1mph
Humidity: 88%   Direction: NA
Pressure: 30.45"   Gusts: NA
Location:  43.36°N, 3.01°W
Report Text: LEBB 220330Z VRB01KT 9999 BKN040 15/13 Q1031 NOSIG
Loading
Personal Weather Stations






























Interactive Weather Map
Tropical Storm Tracking
New forecast layout! Learn more

10-Day Weather Forecast

Advertisements
Track Severe Weather on mobile